sensor_id;sensor_type;location;lat;lon;timestamp;P1;durP1;ratioP1;P2;durP2;ratioP2
60873;SDS011;46715;40.642;-7.920;2023-05-13T00:00:48;2.55;;;0.82;;
60873;SDS011;46715;40.642;-7.920;2023-05-13T00:02:50;1.13;;;0.73;;
60873;SDS011;46715;40.642;-7.920;2023-05-13T00:04:52;1.63;;;0.93;;
60873;SDS011;46715;40.642;-7.920;2023-05-13T00:06:54;1.48;;;0.70;;
60873;SDS011;46715;40.642;-7.920;2023-05-13T00:08:55;1.20;;;0.63;;
60873;SDS011;46715;40.642;-7.920;2023-05-13T00:10:56;3.47;;;0.90;;
60873;SDS011;46715;40.642;-7.920;2023-05-13T00:12:57;2.33;;;0.90;;
60873;SDS011;46715;40.642;-7.920;2023-05-13T00:14:59;3.15;;;0.90;;
60873;SDS011;46715;40.642;-7.920;2023-05-13T00:17:00;1.25;;;0.70;;
60873;SDS011;46715;40.642;-7.920;2023-05-13T00:19:04;1.63;;;0.75;;
60873;SDS011;46715;40.642;-7.920;2023-05-13T00:21:05;4.10;;;0.90;;
60873;SDS011;46715;40.642;-7.920;2023-05-13T00:23:06;2.38;;;0.77;;
60873;SDS011;46715;40.642;-7.920;2023-05-13T00:25:07;0.80;;;0.70;;
60873;SDS011;46715;40.642;-7.920;2023-05-13T00:27:08;1.35;;;0.60;;
60873;SDS011;46715;40.642;-7.920;2023-05-13T00:29:10;1.42;;;0.60;;
60873;SDS011;46715;40.642;-7.920;2023-05-13T00:31:11;1.15;;;0.60;;
60873;SDS011;46715;40.642;-7.920;2023-05-13T00:33:12;2.47;;;0.80;;
60873;SDS011;46715;40.642;-7.920;2023-05-13T00:35:14;3.50;;;0.73;;
60873;SDS011;46715;40.642;-7.920;2023-05-13T00:37:15;3.38;;;0.73;;
60873;SDS011;46715;40.642;-7.920;2023-05-13T00:39:16;1.77;;;0.73;;
60873;SDS011;46715;40.642;-7.920;2023-05-13T00:41:17;1.73;;;0.70;;
60873;SDS011;46715;40.642;-7.920;2023-05-13T00:43:19;2.03;;;0.70;;
60873;SDS011;46715;40.642;-7.920;2023-05-13T00:45:21;1.90;;;0.77;;
60873;SDS011;46715;40.642;-7.920;2023-05-13T00:47:22;1.70;;;0.83;;
60873;SDS011;46715;40.642;-7.920;2023-05-13T00:49:22;1.90;;;0.83;;
60873;SDS011;46715;40.642;-7.920;2023-05-13T00:51:24;1.50;;;0.85;;
60873;SDS011;46715;40.642;-7.920;2023-05-13T00:53:25;2.27;;;0.80;;
60873;SDS011;46715;40.642;-7.920;2023-05-13T00:55:26;1.48;;;0.55;;
60873;SDS011;46715;40.642;-7.920;2023-05-13T00:57:27;2.30;;;0.70;;
60873;SDS011;46715;40.642;-7.920;2023-05-13T00:59:29;1.35;;;0.60;;
60873;SDS011;46715;40.642;-7.920;2023-05-13T01:01:37;1.83;;;0.70;;
60873;SDS011;46715;40.642;-7.920;2023-05-13T01:07:02;3.33;;;0.88;;
60873;SDS011;46715;40.642;-7.920;2023-05-13T01:08:56;1.90;;;0.50;;
60873;SDS011;46715;40.642;-7.920;2023-05-13T01:13:04;1.47;;;0.60;;
60873;SDS011;46715;40.642;-7.920;2023-05-13T01:15:14;0.90;;;0.60;;
60873;SDS011;46715;40.642;-7.920;2023-05-13T01:17:31;4.20;;;0.80;;
60873;SDS011;46715;40.642;-7.920;2023-05-13T01:19:41;2.95;;;0.73;;
60873;SDS011;46715;40.642;-7.920;2023-05-13T01:21:51;1.30;;;0.80;;
60873;SDS011;46715;40.642;-7.920;2023-05-13T01:23:53;1.67;;;0.80;;
60873;SDS011;46715;40.642;-7.920;2023-05-13T01:25:56;3.22;;;0.90;;
60873;SDS011;46715;40.642;-7.920;2023-05-13T01:27:57;3.38;;;0.70;;
60873;SDS011;46715;40.642;-7.920;2023-05-13T01:29:59;2.67;;;0.70;;
60873;SDS011;46715;40.642;-7.920;2023-05-13T01:32:04;1.40;;;0.70;;
60873;SDS011;46715;40.642;-7.920;2023-05-13T01:34:07;1.33;;;0.60;;
60873;SDS011;46715;40.642;-7.920;2023-05-13T01:36:10;1.13;;;0.70;;
60873;SDS011;46715;40.642;-7.920;2023-05-13T01:38:14;3.30;;;0.55;;
60873;SDS011;46715;40.642;-7.920;2023-05-13T01:40:20;2.65;;;0.80;;
60873;SDS011;46715;40.642;-7.920;2023-05-13T01:42:22;4.80;;;0.63;;
60873;SDS011;46715;40.642;-7.920;2023-05-13T01:44:24;4.50;;;0.77;;
60873;SDS011;46715;40.642;-7.920;2023-05-13T01:46:25;1.23;;;0.70;;
60873;SDS011;46715;40.642;-7.920;2023-05-13T01:48:26;1.70;;;0.90;;
60873;SDS011;46715;40.642;-7.920;2023-05-13T01:50:27;0.93;;;0.80;;
60873;SDS011;46715;40.642;-7.920;2023-05-13T01:52:28;1.07;;;0.50;;
60873;SDS011;46715;40.642;-7.920;2023-05-13T01:54:29;2.20;;;0.70;;
60873;SDS011;46715;40.642;-7.920;2023-05-13T01:56:37;2.15;;;0.82;;
60873;SDS011;46715;40.642;-7.920;2023-05-13T01:58:38;1.83;;;0.80;;
60873;SDS011;46715;40.642;-7.920;2023-05-13T02:02:41;3.30;;;0.70;;
60873;SDS011;46715;40.642;-7.920;2023-05-13T02:04:42;2.23;;;0.73;;
60873;SDS011;46715;40.642;-7.920;2023-05-13T02:06:43;1.50;;;0.70;;
60873;SDS011;46715;40.642;-7.920;2023-05-13T02:08:43;1.17;;;0.50;;
60873;SDS011;46715;40.642;-7.920;2023-05-13T02:10:52;3.20;;;1.07;;
60873;SDS011;46715;40.642;-7.920;2023-05-13T02:13:02;1.35;;;0.70;;
60873;SDS011;46715;40.642;-7.920;2023-05-13T02:17:05;0.73;;;0.60;;
60873;SDS011;46715;40.642;-7.920;2023-05-13T02:19:06;3.67;;;0.80;;
60873;SDS011;46715;40.642;-7.920;2023-05-13T02:21:07;1.07;;;0.70;;
60873;SDS011;46715;40.642;-7.920;2023-05-13T02:23:09;1.73;;;0.70;;
60873;SDS011;46715;40.642;-7.920;2023-05-13T02:25:09;1.33;;;0.90;;
60873;SDS011;46715;40.642;-7.920;2023-05-13T02:27:10;2.33;;;0.60;;
60873;SDS011;46715;40.642;-7.920;2023-05-13T02:29:12;1.45;;;0.50;;
60873;SDS011;46715;40.642;-7.920;2023-05-13T02:31:15;1.83;;;0.63;;
60873;SDS011;46715;40.642;-7.920;2023-05-13T02:33:17;1.50;;;0.70;;
60873;SDS011;46715;40.642;-7.920;2023-05-13T02:35:18;1.87;;;0.70;;
60873;SDS011;46715;40.642;-7.920;2023-05-13T02:37:19;1.52;;;1.10;;
60873;SDS011;46715;40.642;-7.920;2023-05-13T02:39:28;1.30;;;0.73;;
60873;SDS011;46715;40.642;-7.920;2023-05-13T02:41:32;1.15;;;0.65;;
60873;SDS011;46715;40.642;-7.920;2023-05-13T02:43:32;1.03;;;0.70;;
60873;SDS011;46715;40.642;-7.920;2023-05-13T02:45:38;0.98;;;0.70;;
60873;SDS011;46715;40.642;-7.920;2023-05-13T02:47:42;1.63;;;0.60;;
60873;SDS011;46715;40.642;-7.920;2023-05-13T02:49:43;1.75;;;0.80;;
60873;SDS011;46715;40.642;-7.920;2023-05-13T02:51:44;1.27;;;0.70;;
60873;SDS011;46715;40.642;-7.920;2023-05-13T02:53:45;1.40;;;0.68;;
60873;SDS011;46715;40.642;-7.920;2023-05-13T02:55:47;1.58;;;0.60;;
60873;SDS011;46715;40.642;-7.920;2023-05-13T02:57:48;1.80;;;0.70;;
60873;SDS011;46715;40.642;-7.920;2023-05-13T02:59:49;1.60;;;0.85;;
60873;SDS011;46715;40.642;-7.920;2023-05-13T03:01:49;1.03;;;0.70;;
60873;SDS011;46715;40.642;-7.920;2023-05-13T03:03:50;5.37;;;0.67;;
60873;SDS011;46715;40.642;-7.920;2023-05-13T03:05:51;1.53;;;0.70;;
60873;SDS011;46715;40.642;-7.920;2023-05-13T03:07:52;1.33;;;0.90;;
60873;SDS011;46715;40.642;-7.920;2023-05-13T03:09:54;2.08;;;0.80;;
60873;SDS011;46715;40.642;-7.920;2023-05-13T03:11:56;1.42;;;0.90;;
60873;SDS011;46715;40.642;-7.920;2023-05-13T03:13:57;1.50;;;0.90;;
60873;SDS011;46715;40.642;-7.920;2023-05-13T03:15:59;2.22;;;1.02;;
60873;SDS011;46715;40.642;-7.920;2023-05-13T03:18:00;2.75;;;0.85;;
60873;SDS011;46715;40.642;-7.920;2023-05-13T03:20:01;2.15;;;0.70;;
60873;SDS011;46715;40.642;-7.920;2023-05-13T03:22:03;1.83;;;0.77;;
60873;SDS011;46715;40.642;-7.920;2023-05-13T03:24:06;2.83;;;0.95;;
60873;SDS011;46715;40.642;-7.920;2023-05-13T03:26:07;1.90;;;0.60;;
60873;SDS011;46715;40.642;-7.920;2023-05-13T03:28:08;4.97;;;0.90;;
60873;SDS011;46715;40.642;-7.920;2023-05-13T03:30:13;1.25;;;0.75;;
60873;SDS011;46715;40.642;-7.920;2023-05-13T03:32:21;1.15;;;0.60;;
60873;SDS011;46715;40.642;-7.920;2023-05-13T03:34:26;2.72;;;0.70;;
60873;SDS011;46715;40.642;-7.920;2023-05-13T03:36:27;4.43;;;1.50;;
60873;SDS011;46715;40.642;-7.920;2023-05-13T03:38:28;2.33;;;1.00;;
60873;SDS011;46715;40.642;-7.920;2023-05-13T03:40:29;3.03;;;0.70;;
60873;SDS011;46715;40.642;-7.920;2023-05-13T03:42:30;1.00;;;0.77;;
60873;SDS011;46715;40.642;-7.920;2023-05-13T03:44:35;1.30;;;0.77;;
60873;SDS011;46715;40.642;-7.920;2023-05-13T03:46:36;1.23;;;1.05;;
60873;SDS011;46715;40.642;-7.920;2023-05-13T03:48:39;1.42;;;0.70;;
60873;SDS011;46715;40.642;-7.920;2023-05-13T03:50:40;2.65;;;0.80;;
60873;SDS011;46715;40.642;-7.920;2023-05-13T03:52:41;2.22;;;0.80;;
60873;SDS011;46715;40.642;-7.920;2023-05-13T03:54:43;4.10;;;1.08;;
60873;SDS011;46715;40.642;-7.920;2023-05-13T03:56:45;2.97;;;1.15;;
60873;SDS011;46715;40.642;-7.920;2023-05-13T03:58:46;2.97;;;0.63;;
60873;SDS011;46715;40.642;-7.920;2023-05-13T04:00:48;1.58;;;0.70;;
60873;SDS011;46715;40.642;-7.920;2023-05-13T04:02:49;3.77;;;1.00;;
60873;SDS011;46715;40.642;-7.920;2023-05-13T04:04:50;2.75;;;0.70;;
60873;SDS011;46715;40.642;-7.920;2023-05-13T04:06:52;1.42;;;0.80;;
60873;SDS011;46715;40.642;-7.920;2023-05-13T04:08:53;0.83;;;0.77;;
60873;SDS011;46715;40.642;-7.920;2023-05-13T04:10:54;3.80;;;0.90;;
60873;SDS011;46715;40.642;-7.920;2023-05-13T04:12:59;1.85;;;0.80;;
60873;SDS011;46715;40.642;-7.920;2023-05-13T04:15:01;1.20;;;0.82;;
60873;SDS011;46715;40.642;-7.920;2023-05-13T04:19:04;0.85;;;0.77;;
60873;SDS011;46715;40.642;-7.920;2023-05-13T04:21:08;0.90;;;0.70;;
60873;SDS011;46715;40.642;-7.920;2023-05-13T04:23:09;2.38;;;0.90;;
60873;SDS011;46715;40.642;-7.920;2023-05-13T04:25:10;4.37;;;0.90;;
60873;SDS011;46715;40.642;-7.920;2023-05-13T04:27:11;3.30;;;0.70;;
60873;SDS011;46715;40.642;-7.920;2023-05-13T04:29:12;2.23;;;1.10;;
60873;SDS011;46715;40.642;-7.920;2023-05-13T04:31:12;2.97;;;1.27;;
60873;SDS011;46715;40.642;-7.920;2023-05-13T04:33:14;2.08;;;0.90;;
60873;SDS011;46715;40.642;-7.920;2023-05-13T04:35:19;1.23;;;0.75;;
60873;SDS011;46715;40.642;-7.920;2023-05-13T04:37:25;4.43;;;0.82;;
60873;SDS011;46715;40.642;-7.920;2023-05-13T04:39:30;3.65;;;0.80;;
60873;SDS011;46715;40.642;-7.920;2023-05-13T04:41:32;2.90;;;0.90;;
60873;SDS011;46715;40.642;-7.920;2023-05-13T04:43:33;3.90;;;1.00;;
60873;SDS011;46715;40.642;-7.920;2023-05-13T04:45:35;2.60;;;0.80;;
60873;SDS011;46715;40.642;-7.920;2023-05-13T04:47:39;1.27;;;0.88;;
60873;SDS011;46715;40.642;-7.920;2023-05-13T04:49:41;2.10;;;0.80;;
60873;SDS011;46715;40.642;-7.920;2023-05-13T04:51:42;3.53;;;0.82;;
60873;SDS011;46715;40.642;-7.920;2023-05-13T04:53:43;4.00;;;0.70;;
60873;SDS011;46715;40.642;-7.920;2023-05-13T04:55:45;1.40;;;0.80;;
60873;SDS011;46715;40.642;-7.920;2023-05-13T04:57:48;2.58;;;1.05;;
60873;SDS011;46715;40.642;-7.920;2023-05-13T04:59:49;1.58;;;0.80;;
60873;SDS011;46715;40.642;-7.920;2023-05-13T05:01:49;1.80;;;0.93;;
60873;SDS011;46715;40.642;-7.920;2023-05-13T05:03:51;0.97;;;0.80;;
60873;SDS011;46715;40.642;-7.920;2023-05-13T05:05:53;1.55;;;0.85;;
60873;SDS011;46715;40.642;-7.920;2023-05-13T05:07:55;1.65;;;0.70;;
60873;SDS011;46715;40.642;-7.920;2023-05-13T05:09:56;4.00;;;0.85;;
60873;SDS011;46715;40.642;-7.920;2023-05-13T05:11:57;2.95;;;0.90;;
60873;SDS011;46715;40.642;-7.920;2023-05-13T05:14:01;2.15;;;0.70;;
60873;SDS011;46715;40.642;-7.920;2023-05-13T05:16:02;1.20;;;0.90;;
60873;SDS011;46715;40.642;-7.920;2023-05-13T05:18:04;5.30;;;0.90;;
60873;SDS011;46715;40.642;-7.920;2023-05-13T05:20:07;2.55;;;1.20;;
60873;SDS011;46715;40.642;-7.920;2023-05-13T05:22:08;3.40;;;1.00;;
60873;SDS011;46715;40.642;-7.920;2023-05-13T05:24:09;2.43;;;0.83;;
60873;SDS011;46715;40.642;-7.920;2023-05-13T05:26:10;1.00;;;0.87;;
60873;SDS011;46715;40.642;-7.920;2023-05-13T05:28:12;2.53;;;0.90;;
60873;SDS011;46715;40.642;-7.920;2023-05-13T05:30:16;2.17;;;1.00;;
60873;SDS011;46715;40.642;-7.920;2023-05-13T05:32:21;3.15;;;0.95;;
60873;SDS011;46715;40.642;-7.920;2023-05-13T05:36:24;1.48;;;0.90;;
60873;SDS011;46715;40.642;-7.920;2023-05-13T05:38:25;3.83;;;1.00;;
60873;SDS011;46715;40.642;-7.920;2023-05-13T05:40:26;4.75;;;1.60;;
60873;SDS011;46715;40.642;-7.920;2023-05-13T05:42:27;3.10;;;1.10;;
60873;SDS011;46715;40.642;-7.920;2023-05-13T05:44:28;1.60;;;1.27;;
60873;SDS011;46715;40.642;-7.920;2023-05-13T05:46:31;4.45;;;1.00;;
60873;SDS011;46715;40.642;-7.920;2023-05-13T05:48:32;1.85;;;0.93;;
60873;SDS011;46715;40.642;-7.920;2023-05-13T05:50:34;2.97;;;0.90;;
60873;SDS011;46715;40.642;-7.920;2023-05-13T05:52:37;2.70;;;1.10;;
60873;SDS011;46715;40.642;-7.920;2023-05-13T05:54:38;1.53;;;1.13;;
60873;SDS011;46715;40.642;-7.920;2023-05-13T05:56:39;1.57;;;0.80;;
60873;SDS011;46715;40.642;-7.920;2023-05-13T05:58:41;0.85;;;0.80;;
60873;SDS011;46715;40.642;-7.920;2023-05-13T06:00:42;0.98;;;0.80;;
60873;SDS011;46715;40.642;-7.920;2023-05-13T06:02:43;1.27;;;0.70;;
60873;SDS011;46715;40.642;-7.920;2023-05-13T06:04:46;3.22;;;0.80;;
60873;SDS011;46715;40.642;-7.920;2023-05-13T06:06:47;3.07;;;0.90;;
60873;SDS011;46715;40.642;-7.920;2023-05-13T06:08:48;3.10;;;0.90;;
60873;SDS011;46715;40.642;-7.920;2023-05-13T06:10:49;1.43;;;0.80;;
60873;SDS011;46715;40.642;-7.920;2023-05-13T06:12:51;3.05;;;0.80;;
60873;SDS011;46715;40.642;-7.920;2023-05-13T06:14:52;2.28;;;0.95;;
60873;SDS011;46715;40.642;-7.920;2023-05-13T06:16:53;0.90;;;0.80;;
60873;SDS011;46715;40.642;-7.920;2023-05-13T06:18:54;3.67;;;0.95;;
60873;SDS011;46715;40.642;-7.920;2023-05-13T06:20:56;2.97;;;0.90;;
60873;SDS011;46715;40.642;-7.920;2023-05-13T06:22:56;5.30;;;0.80;;
60873;SDS011;46715;40.642;-7.920;2023-05-13T06:26:59;0.90;;;0.80;;
60873;SDS011;46715;40.642;-7.920;2023-05-13T06:29:01;1.17;;;0.65;;
60873;SDS011;46715;40.642;-7.920;2023-05-13T06:31:02;2.65;;;0.70;;
60873;SDS011;46715;40.642;-7.920;2023-05-13T06:33:03;1.88;;;0.93;;
60873;SDS011;46715;40.642;-7.920;2023-05-13T06:35:04;2.95;;;1.13;;
60873;SDS011;46715;40.642;-7.920;2023-05-13T06:37:06;1.38;;;0.80;;
60873;SDS011;46715;40.642;-7.920;2023-05-13T06:39:07;1.55;;;0.60;;
60873;SDS011;46715;40.642;-7.920;2023-05-13T06:41:09;3.28;;;0.98;;
60873;SDS011;46715;40.642;-7.920;2023-05-13T06:43:12;1.63;;;0.63;;
60873;SDS011;46715;40.642;-7.920;2023-05-13T06:45:22;1.05;;;0.70;;
60873;SDS011;46715;40.642;-7.920;2023-05-13T06:47:25;1.00;;;0.57;;
60873;SDS011;46715;40.642;-7.920;2023-05-13T06:49:26;2.97;;;0.93;;
60873;SDS011;46715;40.642;-7.920;2023-05-13T06:51:27;3.28;;;0.93;;
60873;SDS011;46715;40.642;-7.920;2023-05-13T06:53:30;1.77;;;0.68;;
60873;SDS011;46715;40.642;-7.920;2023-05-13T06:55:34;6.53;;;0.80;;
60873;SDS011;46715;40.642;-7.920;2023-05-13T06:57:40;3.45;;;1.02;;
60873;SDS011;46715;40.642;-7.920;2023-05-13T06:59:45;3.53;;;0.98;;
60873;SDS011;46715;40.642;-7.920;2023-05-13T07:01:46;2.60;;;0.90;;
60873;SDS011;46715;40.642;-7.920;2023-05-13T07:03:47;1.90;;;0.85;;
60873;SDS011;46715;40.642;-7.920;2023-05-13T07:05:49;2.38;;;0.60;;
60873;SDS011;46715;40.642;-7.920;2023-05-13T07:07:49;0.73;;;0.70;;
60873;SDS011;46715;40.642;-7.920;2023-05-13T07:09:52;2.35;;;0.80;;
60873;SDS011;46715;40.642;-7.920;2023-05-13T07:11:53;4.45;;;0.70;;
60873;SDS011;46715;40.642;-7.920;2023-05-13T07:13:55;3.53;;;0.80;;
60873;SDS011;46715;40.642;-7.920;2023-05-13T07:15:56;1.60;;;0.77;;
60873;SDS011;46715;40.642;-7.920;2023-05-13T07:17:56;0.67;;;0.50;;
60873;SDS011;46715;40.642;-7.920;2023-05-13T07:19:57;1.30;;;0.50;;
60873;SDS011;46715;40.642;-7.920;2023-05-13T07:21:58;1.23;;;0.45;;
60873;SDS011;46715;40.642;-7.920;2023-05-13T07:23:59;1.93;;;0.50;;
60873;SDS011;46715;40.642;-7.920;2023-05-13T07:26:01;2.65;;;0.60;;
60873;SDS011;46715;40.642;-7.920;2023-05-13T07:28:02;0.30;;;0.30;;
60873;SDS011;46715;40.642;-7.920;2023-05-13T07:32:05;0.75;;;0.28;;
60873;SDS011;46715;40.642;-7.920;2023-05-13T07:34:06;3.03;;;0.50;;
60873;SDS011;46715;40.642;-7.920;2023-05-13T07:36:09;0.28;;;0.20;;
60873;SDS011;46715;40.642;-7.920;2023-05-13T07:38:10;0.52;;;0.50;;
60873;SDS011;46715;40.642;-7.920;2023-05-13T07:40:11;1.67;;;0.40;;
60873;SDS011;46715;40.642;-7.920;2023-05-13T07:42:13;1.58;;;0.50;;
60873;SDS011;46715;40.642;-7.920;2023-05-13T07:44:15;1.70;;;0.40;;
60873;SDS011;46715;40.642;-7.920;2023-05-13T07:46:16;1.08;;;0.35;;
60873;SDS011;46715;40.642;-7.920;2023-05-13T07:48:17;0.47;;;0.40;;
60873;SDS011;46715;40.642;-7.920;2023-05-13T07:50:19;0.45;;;0.20;;
60873;SDS011;46715;40.642;-7.920;2023-05-13T07:52:20;0.45;;;0.28;;
60873;SDS011;46715;40.642;-7.920;2023-05-13T07:54:21;1.35;;;0.50;;
60873;SDS011;46715;40.642;-7.920;2023-05-13T07:56:22;2.22;;;0.40;;
60873;SDS011;46715;40.642;-7.920;2023-05-13T07:58:23;0.40;;;0.30;;
60873;SDS011;46715;40.642;-7.920;2023-05-13T08:00:24;0.70;;;0.30;;
60873;SDS011;46715;40.642;-7.920;2023-05-13T08:02:24;0.43;;;0.30;;
60873;SDS011;46715;40.642;-7.920;2023-05-13T08:04:25;1.38;;;0.47;;
60873;SDS011;46715;40.642;-7.920;2023-05-13T08:06:27;0.20;;;0.20;;
60873;SDS011;46715;40.642;-7.920;2023-05-13T08:10:28;1.47;;;0.40;;
60873;SDS011;46715;40.642;-7.920;2023-05-13T08:12:30;0.85;;;0.30;;
60873;SDS011;46715;40.642;-7.920;2023-05-13T08:14:32;2.60;;;0.38;;
60873;SDS011;46715;40.642;-7.920;2023-05-13T08:16:33;2.17;;;0.20;;
60873;SDS011;46715;40.642;-7.920;2023-05-13T08:18:36;2.65;;;0.40;;
60873;SDS011;46715;40.642;-7.920;2023-05-13T08:22:40;1.63;;;0.32;;
60873;SDS011;46715;40.642;-7.920;2023-05-13T08:24:43;2.38;;;0.35;;
60873;SDS011;46715;40.642;-7.920;2023-05-13T08:26:44;0.30;;;0.20;;
60873;SDS011;46715;40.642;-7.920;2023-05-13T08:28:45;1.70;;;0.17;;
60873;SDS011;46715;40.642;-7.920;2023-05-13T08:30:46;0.82;;;0.32;;
60873;SDS011;46715;40.642;-7.920;2023-05-13T08:32:47;1.60;;;0.40;;
60873;SDS011;46715;40.642;-7.920;2023-05-13T08:34:48;1.42;;;0.40;;
60873;SDS011;46715;40.642;-7.920;2023-05-13T08:36:49;2.28;;;0.35;;
60873;SDS011;46715;40.642;-7.920;2023-05-13T08:38:50;1.00;;;0.40;;
60873;SDS011;46715;40.642;-7.920;2023-05-13T08:40:51;0.93;;;0.35;;
60873;SDS011;46715;40.642;-7.920;2023-05-13T08:42:53;0.45;;;0.30;;
60873;SDS011;46715;40.642;-7.920;2023-05-13T08:44:59;1.02;;;0.38;;
60873;SDS011;46715;40.642;-7.920;2023-05-13T08:47:15;0.82;;;0.25;;
60873;SDS011;46715;40.642;-7.920;2023-05-13T08:49:21;0.88;;;0.40;;
60873;SDS011;46715;40.642;-7.920;2023-05-13T08:51:22;0.47;;;0.30;;
60873;SDS011;46715;40.642;-7.920;2023-05-13T08:53:25;1.52;;;0.50;;
60873;SDS011;46715;40.642;-7.920;2023-05-13T08:55:26;1.42;;;0.25;;
60873;SDS011;46715;40.642;-7.920;2023-05-13T08:57:29;1.00;;;0.50;;
60873;SDS011;46715;40.642;-7.920;2023-05-13T08:59:30;1.17;;;0.30;;
60873;SDS011;46715;40.642;-7.920;2023-05-13T09:01:30;1.55;;;0.47;;
60873;SDS011;46715;40.642;-7.920;2023-05-13T09:03:31;2.25;;;0.43;;
60873;SDS011;46715;40.642;-7.920;2023-05-13T09:05:34;3.08;;;0.40;;
60873;SDS011;46715;40.642;-7.920;2023-05-13T09:07:37;1.38;;;0.40;;
60873;SDS011;46715;40.642;-7.920;2023-05-13T09:09:39;2.50;;;0.30;;
60873;SDS011;46715;40.642;-7.920;2023-05-13T09:11:40;0.10;;;0.10;;
60873;SDS011;46715;40.642;-7.920;2023-05-13T09:13:57;0.85;;;0.30;;
60873;SDS011;46715;40.642;-7.920;2023-05-13T09:16:02;2.97;;;0.40;;
60873;SDS011;46715;40.642;-7.920;2023-05-13T09:18:08;0.32;;;0.20;;
60873;SDS011;46715;40.642;-7.920;2023-05-13T09:20:09;0.95;;;0.30;;
60873;SDS011;46715;40.642;-7.920;2023-05-13T09:22:16;1.05;;;0.40;;
60873;SDS011;46715;40.642;-7.920;2023-05-13T09:24:17;1.60;;;0.30;;
60873;SDS011;46715;40.642;-7.920;2023-05-13T09:26:27;0.45;;;0.20;;
60873;SDS011;46715;40.642;-7.920;2023-05-13T09:28:30;2.25;;;0.30;;
60873;SDS011;46715;40.642;-7.920;2023-05-13T09:30:32;0.50;;;0.20;;
60873;SDS011;46715;40.642;-7.920;2023-05-13T09:32:33;0.38;;;0.25;;
60873;SDS011;46715;40.642;-7.920;2023-05-13T09:34:34;0.43;;;0.30;;
60873;SDS011;46715;40.642;-7.920;2023-05-13T09:36:35;5.68;;;0.50;;
60873;SDS011;46715;40.642;-7.920;2023-05-13T09:38:35;0.52;;;0.30;;
60873;SDS011;46715;40.642;-7.920;2023-05-13T09:40:38;1.38;;;0.52;;
60873;SDS011;46715;40.642;-7.920;2023-05-13T09:42:43;1.25;;;0.30;;
60873;SDS011;46715;40.642;-7.920;2023-05-13T09:44:46;1.05;;;0.20;;
60873;SDS011;46715;40.642;-7.920;2023-05-13T09:46:50;2.30;;;0.47;;
60873;SDS011;46715;40.642;-7.920;2023-05-13T09:48:51;1.10;;;0.40;;
60873;SDS011;46715;40.642;-7.920;2023-05-13T09:50:56;0.30;;;0.20;;
60873;SDS011;46715;40.642;-7.920;2023-05-13T09:52:57;1.85;;;0.40;;
60873;SDS011;46715;40.642;-7.920;2023-05-13T09:55:16;0.93;;;0.30;;
60873;SDS011;46715;40.642;-7.920;2023-05-13T09:57:27;3.20;;;1.35;;
60873;SDS011;46715;40.642;-7.920;2023-05-13T09:59:32;1.85;;;0.50;;
60873;SDS011;46715;40.642;-7.920;2023-05-13T10:01:33;4.22;;;0.30;;
60873;SDS011;46715;40.642;-7.920;2023-05-13T10:03:35;0.73;;;0.20;;
60873;SDS011;46715;40.642;-7.920;2023-05-13T10:05:38;0.90;;;0.45;;
60873;SDS011;46715;40.642;-7.920;2023-05-13T10:07:41;1.35;;;0.50;;
60873;SDS011;46715;40.642;-7.920;2023-05-13T10:09:42;1.30;;;0.40;;
60873;SDS011;46715;40.642;-7.920;2023-05-13T10:11:45;0.93;;;0.47;;
60873;SDS011;46715;40.642;-7.920;2023-05-13T10:13:49;5.72;;;0.50;;
60873;SDS011;46715;40.642;-7.920;2023-05-13T10:15:55;0.68;;;0.30;;
60873;SDS011;46715;40.642;-7.920;2023-05-13T10:17:57;1.52;;;0.40;;
60873;SDS011;46715;40.642;-7.920;2023-05-13T10:19:59;1.83;;;0.30;;
60873;SDS011;46715;40.642;-7.920;2023-05-13T10:22:01;1.67;;;0.50;;
60873;SDS011;46715;40.642;-7.920;2023-05-13T10:24:02;1.58;;;0.38;;
60873;SDS011;46715;40.642;-7.920;2023-05-13T10:26:04;1.67;;;0.28;;
60873;SDS011;46715;40.642;-7.920;2023-05-13T10:28:06;1.00;;;0.52;;
60873;SDS011;46715;40.642;-7.920;2023-05-13T10:30:08;1.48;;;0.50;;
60873;SDS011;46715;40.642;-7.920;2023-05-13T10:32:10;0.75;;;0.38;;
60873;SDS011;46715;40.642;-7.920;2023-05-13T10:34:13;0.85;;;0.40;;
60873;SDS011;46715;40.642;-7.920;2023-05-13T10:38:30;1.55;;;0.30;;
60873;SDS011;46715;40.642;-7.920;2023-05-13T10:45:16;1.10;;;0.15;;
60873;SDS011;46715;40.642;-7.920;2023-05-13T10:47:17;0.70;;;0.38;;
60873;SDS011;46715;40.642;-7.920;2023-05-13T10:49:18;0.68;;;0.40;;
60873;SDS011;46715;40.642;-7.920;2023-05-13T10:51:23;1.35;;;0.43;;
60873;SDS011;46715;40.642;-7.920;2023-05-13T10:53:34;1.25;;;0.40;;
60873;SDS011;46715;40.642;-7.920;2023-05-13T10:58:17;1.15;;;0.70;;
60873;SDS011;46715;40.642;-7.920;2023-05-13T11:00:14;1.48;;;0.50;;
60873;SDS011;46715;40.642;-7.920;2023-05-13T11:02:20;2.88;;;0.47;;
60873;SDS011;46715;40.642;-7.920;2023-05-13T11:04:22;0.20;;;0.15;;
60873;SDS011;46715;40.642;-7.920;2023-05-13T11:06:43;0.77;;;0.20;;
60873;SDS011;46715;40.642;-7.920;2023-05-13T11:08:49;0.57;;;0.30;;
60873;SDS011;46715;40.642;-7.920;2023-05-13T11:10:54;3.13;;;0.35;;
60873;SDS011;46715;40.642;-7.920;2023-05-13T11:15:24;1.90;;;0.68;;
60873;SDS011;46715;40.642;-7.920;2023-05-13T11:17:44;2.40;;;0.63;;
60873;SDS011;46715;40.642;-7.920;2023-05-13T11:19:45;0.98;;;0.45;;
60873;SDS011;46715;40.642;-7.920;2023-05-13T11:21:49;2.45;;;0.45;;
60873;SDS011;46715;40.642;-7.920;2023-05-13T11:23:54;2.20;;;1.02;;
60873;SDS011;46715;40.642;-7.920;2023-05-13T11:26:11;0.73;;;0.40;;
60873;SDS011;46715;40.642;-7.920;2023-05-13T11:28:15;2.10;;;0.43;;
60873;SDS011;46715;40.642;-7.920;2023-05-13T11:30:22;1.30;;;0.50;;
60873;SDS011;46715;40.642;-7.920;2023-05-13T11:34:58;0.77;;;0.40;;
60873;SDS011;46715;40.642;-7.920;2023-05-13T11:41:14;0.70;;;0.40;;
60873;SDS011;46715;40.642;-7.920;2023-05-13T11:43:18;1.23;;;0.40;;
60873;SDS011;46715;40.642;-7.920;2023-05-13T11:45:22;1.50;;;0.40;;
60873;SDS011;46715;40.642;-7.920;2023-05-13T11:47:24;0.95;;;0.47;;
60873;SDS011;46715;40.642;-7.920;2023-05-13T11:49:37;1.33;;;0.43;;
60873;SDS011;46715;40.642;-7.920;2023-05-13T11:51:42;0.38;;;0.30;;
60873;SDS011;46715;40.642;-7.920;2023-05-13T11:53:43;3.33;;;0.55;;
60873;SDS011;46715;40.642;-7.920;2023-05-13T11:55:44;0.47;;;0.35;;
60873;SDS011;46715;40.642;-7.920;2023-05-13T11:57:47;1.13;;;0.47;;
60873;SDS011;46715;40.642;-7.920;2023-05-13T12:02:00;1.48;;;0.80;;
60873;SDS011;46715;40.642;-7.920;2023-05-13T12:04:03;2.47;;;0.60;;
60873;SDS011;46715;40.642;-7.920;2023-05-13T12:06:04;0.73;;;0.60;;
60873;SDS011;46715;40.642;-7.920;2023-05-13T12:08:06;1.90;;;0.40;;
60873;SDS011;46715;40.642;-7.920;2023-05-13T12:10:09;1.45;;;0.50;;
60873;SDS011;46715;40.642;-7.920;2023-05-13T12:12:10;2.65;;;0.52;;
60873;SDS011;46715;40.642;-7.920;2023-05-13T12:16:12;2.50;;;0.40;;
60873;SDS011;46715;40.642;-7.920;2023-05-13T12:18:14;1.13;;;0.50;;
60873;SDS011;46715;40.642;-7.920;2023-05-13T12:20:15;0.63;;;0.27;;
60873;SDS011;46715;40.642;-7.920;2023-05-13T12:22:22;1.02;;;0.30;;
60873;SDS011;46715;40.642;-7.920;2023-05-13T12:24:23;0.57;;;0.35;;
60873;SDS011;46715;40.642;-7.920;2023-05-13T12:26:24;1.63;;;0.50;;
60873;SDS011;46715;40.642;-7.920;2023-05-13T12:28:25;1.60;;;0.50;;
60873;SDS011;46715;40.642;-7.920;2023-05-13T12:30:32;1.00;;;0.40;;
60873;SDS011;46715;40.642;-7.920;2023-05-13T12:32:43;0.60;;;0.30;;
60873;SDS011;46715;40.642;-7.920;2023-05-13T12:34:44;0.77;;;0.30;;
60873;SDS011;46715;40.642;-7.920;2023-05-13T12:36:52;1.00;;;0.25;;
60873;SDS011;46715;40.642;-7.920;2023-05-13T12:38:57;0.40;;;0.28;;
60873;SDS011;46715;40.642;-7.920;2023-05-13T12:41:04;0.25;;;0.20;;
60873;SDS011;46715;40.642;-7.920;2023-05-13T12:43:12;2.00;;;0.40;;
60873;SDS011;46715;40.642;-7.920;2023-05-13T12:45:15;1.92;;;0.30;;
60873;SDS011;46715;40.642;-7.920;2023-05-13T12:47:16;0.40;;;0.22;;
60873;SDS011;46715;40.642;-7.920;2023-05-13T12:49:19;1.52;;;0.40;;
60873;SDS011;46715;40.642;-7.920;2023-05-13T12:51:20;0.43;;;0.30;;